DLH19Y EDDS-EDDC
Flight info
| Callsign | DLH19Y |
|---|---|
| Flight time | N/A |
| Altitude | 23000 |
| Route | DKB4H/07 DKB N869 AMOSA/N0452F270 N869 ANELA/N0426F230 Z715 KULOK/N0466F310 Z715 ABKIS Q240 DRN EDDC/04 |
| Aircraft | A320/M-SDE3FGHIRWY/LB1 |
Departure
| Time | N/A |
|---|---|
| Airport | Stuttgart Airport (EDDS) |
Arrival
| Time | 2026-04-30 17:56 |
|---|---|
| Airport | Dresden Airport (EDDC) |
| Time | Latitude | Longitude | Altitude | Speed | Heading |
|---|---|---|---|---|---|
| 2026-04-30 17:39 | 50.37025 | 12.38910 | 23399 ft | 410 kts | 50° |
| 2026-04-30 17:41 | 50.50861 | 12.64952 | 17183 ft | 365 kts | 49° |
| 2026-04-30 17:42 | 50.54108 | 12.71069 | 15947 ft | 363 kts | 49° |
| 2026-04-30 17:42 | 50.58899 | 12.80133 | 14204 ft | 355 kts | 50° |
| 2026-04-30 17:43 | 50.62032 | 12.86087 | 13092 ft | 351 kts | 50° |
| 2026-04-30 17:44 | 50.66663 | 12.94883 | 11684 ft | 337 kts | 50° |
| 2026-04-30 17:44 | 50.70831 | 13.02832 | 11313 ft | 295 kts | 50° |
| 2026-04-30 17:46 | 50.76890 | 13.14447 | 10127 ft | 266 kts | 50° |
| 2026-04-30 17:47 | 50.81586 | 13.23465 | 8624 ft | 265 kts | 50° |
| 2026-04-30 17:48 | 50.86219 | 13.32406 | 7089 ft | 261 kts | 50° |
| 2026-04-30 17:48 | 50.89633 | 13.39025 | 5925 ft | 256 kts | 50° |
| 2026-04-30 17:49 | 50.93389 | 13.46304 | 5075 ft | 231 kts | 50° |
| 2026-04-30 17:50 | 50.96904 | 13.53161 | 4045 ft | 212 kts | 50° |
| 2026-04-30 17:51 | 50.99957 | 13.58325 | 3904 ft | 215 kts | 40° |
| 2026-04-30 17:52 | 51.03339 | 13.62950 | 3122 ft | 214 kts | 40° |
| 2026-04-30 17:53 | 51.08620 | 13.70185 | 1793 ft | 165 kts | 39° |
| 2026-04-30 17:54 | 51.11618 | 13.74307 | 1029 ft | 135 kts | 40° |
| 2026-04-30 17:55 | 51.13787 | 13.77284 | 725 ft | 51 kts | 41° |
| 2026-04-30 17:56 | 51.13811 | 13.77678 | 714 ft | 8 kts | 131° |
| 2026-04-30 17:57 | 51.13705 | 13.77652 | 715 ft | 2 kts | 220° |
| 2026-04-30 17:58 | 51.13506 | 13.77376 | 727 ft | 18 kts | 219° |
| 2026-04-30 17:59 | 51.13144 | 13.76878 | 748 ft | 13 kts | 221° |
| 2026-04-30 18:00 | 51.12803 | 13.76419 | 754 ft | 10 kts | 199° |
| 2026-04-30 18:00 | 51.12654 | 13.76354 | 754 ft | 7 kts | 157° |
| 2026-04-30 18:01 | 51.12632 | 13.76389 | 749 ft | 0 kts | 130° |